Terminal Aerodrome Forecast
Issued by NWS

Home | Current Version | Previous Version | Text Only | Print | Product List | Glossary Off
Versions: 1 2 3 4 5 6 7 8 9 10 11 12 13 14 15 16 17 18 19

000
FTUS43 KGRB 180937 AAA
TAFAUW
TAF AMD
KAUW 180937Z 1810/1906 34005KT 6SM BR OVC008
      TEMPO 1810/1814 4SM -DZ BKN003
     FM181400 34010G16KT P6SM SCT008 BKN020
     FM181800 33011KT P6SM SCT025 BKN028
     FM190100 31012KT P6SM BKN035=

USA.gov is the U.S. government's official web portal to all federal, state and local government web resources and services.